Davilla, Texas
Current Conditions -  °F | °C
As of 4:58 PM on Tuesday 25 Nov 2014 (Local Time) from KGRK Reporting Station
Haze Haze  
Wind Chill: 16°   Ceiling: Unl
Heat Index: 16°   Visibility: 6mi
Dew Point: -4°   Wind: 6mph
Humidity: 25%   Direction: 250°WSW
Pressure: 30.19"   Gusts: NA
Location:  30.79°N, 97.28°W
Report Text: KGRK 252258Z AUTO 25005KT 6SM HZ CLR 16/M04 A3019 RMK AO2 SLP225 T01601041
Loading
Personal Weather Stations






























Interactive Weather Map New forecast layout! Learn more

10-Day Weather Forecast

Advertisements
Track Severe Weather on mobile